Butte Des Morts, Wisconsin
Current Conditions -  °F | °C
As of 4:53 AM on Friday 31 Oct 2014 (Local Time) from KOSH Reporting Station
Overcast Overcast  
Wind Chill: 26°   Ceiling: 4100
Heat Index: 36°   Visibility: 10mi
Dew Point: 31°   Wind: 16mph
Humidity: 82%   Direction: 340°NNW
Pressure: 30.11"   Gusts: 25mph
Location:  44.1°N, 88.65°W
Report Text: KOSH 310953Z 34014G22KT 10SM FEW013 OVC041 02/M01 A3011 RMK AO2 UPB0857E20SNB0856E0857B20E31 SLP203 P0000 T00221006
Loading
Personal Weather Stations






























Interactive Weather Map
Tropical Storm Tracking
New forecast layout! Learn more

10-Day Weather Forecast

Advertisements
Track Severe Weather on mobile